sensor_id;sensor_type;location;lat;lon;timestamp;pressure;altitude;pressure_sealevel;temperature;humidity
41467;BME280;27205;53.690;19.948;2022-12-07T00:04:51;99180.70;;;3.15;88.31
41467;BME280;27205;53.690;19.948;2022-12-07T00:09:54;99174.71;;;3.04;88.26
41467;BME280;27205;53.690;19.948;2022-12-07T00:14:58;99171.54;;;2.91;88.30
41467;BME280;27205;53.690;19.948;2022-12-07T00:20:01;99167.74;;;2.81;88.36
41467;BME280;27205;53.690;19.948;2022-12-07T00:25:05;99164.33;;;2.78;88.66
41467;BME280;27205;53.690;19.948;2022-12-07T00:30:09;99157.55;;;2.77;88.68
41467;BME280;27205;53.690;19.948;2022-12-07T00:35:13;99151.11;;;2.74;88.90
41467;BME280;27205;53.690;19.948;2022-12-07T00:40:17;99149.80;;;2.74;88.68
41467;BME280;27205;53.690;19.948;2022-12-07T00:45:20;99145.30;;;2.74;88.78
41467;BME280;27205;53.690;19.948;2022-12-07T00:50:23;99146.08;;;2.71;88.81
41467;BME280;27205;53.690;19.948;2022-12-07T00:55:27;99137.35;;;2.70;88.89
41467;BME280;27205;53.690;19.948;2022-12-07T01:00:31;99131.51;;;2.72;88.96
41467;BME280;27205;53.690;19.948;2022-12-07T01:05:35;99126.58;;;2.76;89.02
41467;BME280;27205;53.690;19.948;2022-12-07T01:10:38;99119.17;;;2.77;89.00
41467;BME280;27205;53.690;19.948;2022-12-07T01:15:43;99115.35;;;2.75;88.92
41467;BME280;27205;53.690;19.948;2022-12-07T01:21:00;99115.17;;;2.73;89.04
41467;BME280;27205;53.690;19.948;2022-12-07T01:26:07;99105.85;;;2.71;88.93
41467;BME280;27205;53.690;19.948;2022-12-07T01:31:16;99105.58;;;2.67;89.00
41467;BME280;27205;53.690;19.948;2022-12-07T01:41:27;99096.92;;;2.64;89.14
41467;BME280;27205;53.690;19.948;2022-12-07T01:46:31;99091.85;;;2.62;89.18
41467;BME280;27205;53.690;19.948;2022-12-07T01:51:36;99089.98;;;2.57;89.11
41467;BME280;27205;53.690;19.948;2022-12-07T01:56:46;99085.61;;;2.53;89.16
41467;BME280;27205;53.690;19.948;2022-12-07T02:01:54;99084.91;;;2.51;89.14
41467;BME280;27205;53.690;19.948;2022-12-07T02:06:58;99074.14;;;2.50;89.33
41467;BME280;27205;53.690;19.948;2022-12-07T02:12:02;99066.36;;;2.50;89.43
41467;BME280;27205;53.690;19.948;2022-12-07T02:27:47;99052.61;;;2.46;89.25
41467;BME280;27205;53.690;19.948;2022-12-07T02:38:25;99037.50;;;2.45;89.45
41467;BME280;27205;53.690;19.948;2022-12-07T02:43:42;99036.10;;;2.47;89.44
41467;BME280;27205;53.690;19.948;2022-12-07T02:48:47;99031.30;;;2.47;89.40
41467;BME280;27205;53.690;19.948;2022-12-07T02:53:52;99025.52;;;2.48;89.58
41467;BME280;27205;53.690;19.948;2022-12-07T02:59:05;99020.15;;;2.48;89.49
41467;BME280;27205;53.690;19.948;2022-12-07T03:09:45;99010.31;;;2.41;89.55
41467;BME280;27205;53.690;19.948;2022-12-07T03:15:08;99002.15;;;2.34;89.44
41467;BME280;27205;53.690;19.948;2022-12-07T03:20:17;98993.23;;;2.29;89.65
41467;BME280;27205;53.690;19.948;2022-12-07T03:25:22;98985.34;;;2.23;89.56
41467;BME280;27205;53.690;19.948;2022-12-07T03:30:35;98978.43;;;2.18;89.59
41467;BME280;27205;53.690;19.948;2022-12-07T03:35:49;98979.30;;;2.16;89.80
41467;BME280;27205;53.690;19.948;2022-12-07T03:41:09;98970.58;;;2.14;89.81
41467;BME280;27205;53.690;19.948;2022-12-07T03:51:56;98967.19;;;2.08;89.94
41467;BME280;27205;53.690;19.948;2022-12-07T03:57:04;98960.76;;;2.08;90.03
41467;BME280;27205;53.690;19.948;2022-12-07T04:02:11;98960.12;;;2.06;90.09
41467;BME280;27205;53.690;19.948;2022-12-07T04:07:16;98954.01;;;2.03;90.21
41467;BME280;27205;53.690;19.948;2022-12-07T04:12:19;98949.04;;;2.01;90.16
41467;BME280;27205;53.690;19.948;2022-12-07T04:17:23;98941.20;;;1.99;90.33
41467;BME280;27205;53.690;19.948;2022-12-07T04:22:26;98937.16;;;1.96;90.50
41467;BME280;27205;53.690;19.948;2022-12-07T04:27:30;98930.58;;;1.96;90.64
41467;BME280;27205;53.690;19.948;2022-12-07T04:32:33;98927.27;;;1.95;90.58
41467;BME280;27205;53.690;19.948;2022-12-07T04:37:37;98923.04;;;1.94;90.51
41467;BME280;27205;53.690;19.948;2022-12-07T04:42:42;98915.91;;;1.94;90.58
41467;BME280;27205;53.690;19.948;2022-12-07T04:47:45;98906.28;;;1.90;90.58
41467;BME280;27205;53.690;19.948;2022-12-07T04:52:49;98906.14;;;1.82;90.78
41467;BME280;27205;53.690;19.948;2022-12-07T04:57:52;98904.52;;;1.77;90.93
41467;BME280;27205;53.690;19.948;2022-12-07T05:02:56;98899.33;;;1.77;90.88
41467;BME280;27205;53.690;19.948;2022-12-07T05:07:59;98895.95;;;1.78;91.06
41467;BME280;27205;53.690;19.948;2022-12-07T05:13:03;98891.14;;;1.78;91.21
41467;BME280;27205;53.690;19.948;2022-12-07T05:18:06;98888.87;;;1.81;91.29
41467;BME280;27205;53.690;19.948;2022-12-07T05:23:10;98884.27;;;1.82;91.23
41467;BME280;27205;53.690;19.948;2022-12-07T05:28:14;98878.47;;;1.79;91.17
41467;BME280;27205;53.690;19.948;2022-12-07T05:33:17;98871.27;;;1.78;91.38
41467;BME280;27205;53.690;19.948;2022-12-07T05:38:20;98863.52;;;1.76;91.49
41467;BME280;27205;53.690;19.948;2022-12-07T05:43:24;98863.41;;;1.77;91.59
41467;BME280;27205;53.690;19.948;2022-12-07T05:48:27;98866.54;;;1.76;91.59
41467;BME280;27205;53.690;19.948;2022-12-07T05:53:31;98863.45;;;1.76;91.67
41467;BME280;27205;53.690;19.948;2022-12-07T05:58:34;98864.88;;;1.75;91.50
41467;BME280;27205;53.690;19.948;2022-12-07T06:03:56;98866.18;;;1.74;91.73
41467;BME280;27205;53.690;19.948;2022-12-07T06:09:00;98862.85;;;1.71;91.72
41467;BME280;27205;53.690;19.948;2022-12-07T06:14:04;98862.05;;;1.69;92.03
41467;BME280;27205;53.690;19.948;2022-12-07T06:19:07;98859.60;;;1.68;91.95
41467;BME280;27205;53.690;19.948;2022-12-07T06:24:12;98853.98;;;1.67;92.23
41467;BME280;27205;53.690;19.948;2022-12-07T06:29:17;98850.61;;;1.65;92.27
41467;BME280;27205;53.690;19.948;2022-12-07T06:34:20;98853.61;;;1.64;92.43
41467;BME280;27205;53.690;19.948;2022-12-07T06:39:27;98855.00;;;1.61;92.64
41467;BME280;27205;53.690;19.948;2022-12-07T06:44:31;98848.30;;;1.60;93.02
41467;BME280;27205;53.690;19.948;2022-12-07T06:49:35;98851.61;;;1.60;92.96
41467;BME280;27205;53.690;19.948;2022-12-07T06:54:38;98851.55;;;1.60;93.31
41467;BME280;27205;53.690;19.948;2022-12-07T06:59:42;98847.73;;;1.63;93.39
41467;BME280;27205;53.690;19.948;2022-12-07T07:04:45;98845.85;;;1.67;93.57
41467;BME280;27205;53.690;19.948;2022-12-07T07:09:49;98837.51;;;1.68;93.64
41467;BME280;27205;53.690;19.948;2022-12-07T07:14:52;98833.80;;;1.70;93.70
41467;BME280;27205;53.690;19.948;2022-12-07T07:19:56;98832.58;;;1.71;93.97
41467;BME280;27205;53.690;19.948;2022-12-07T07:25:00;98828.27;;;1.72;94.03
41467;BME280;27205;53.690;19.948;2022-12-07T07:30:04;98827.28;;;1.75;94.25
41467;BME280;27205;53.690;19.948;2022-12-07T07:35:09;98825.58;;;1.75;94.39
41467;BME280;27205;53.690;19.948;2022-12-07T07:40:12;98826.52;;;1.77;94.51
41467;BME280;27205;53.690;19.948;2022-12-07T07:45:17;98832.17;;;1.81;94.83
41467;BME280;27205;53.690;19.948;2022-12-07T07:50:21;98829.91;;;1.82;94.82
41467;BME280;27205;53.690;19.948;2022-12-07T07:55:24;98832.60;;;1.85;94.91
41467;BME280;27205;53.690;19.948;2022-12-07T08:00:27;98831.98;;;1.89;94.98
41467;BME280;27205;53.690;19.948;2022-12-07T08:05:31;98831.36;;;1.94;95.21
41467;BME280;27205;53.690;19.948;2022-12-07T08:10:34;98840.67;;;1.98;95.28
41467;BME280;27205;53.690;19.948;2022-12-07T08:15:40;98831.77;;;2.02;95.59
41467;BME280;27205;53.690;19.948;2022-12-07T08:20:44;98830.63;;;2.08;95.57
41467;BME280;27205;53.690;19.948;2022-12-07T08:25:47;98832.42;;;2.16;95.60
41467;BME280;27205;53.690;19.948;2022-12-07T08:30:51;98831.18;;;2.24;95.80
41467;BME280;27205;53.690;19.948;2022-12-07T08:36:09;98840.52;;;2.30;95.99
41467;BME280;27205;53.690;19.948;2022-12-07T08:41:13;98848.71;;;2.35;96.35
41467;BME280;27205;53.690;19.948;2022-12-07T08:51:41;98847.96;;;2.50;96.26
41467;BME280;27205;53.690;19.948;2022-12-07T08:56:45;98842.56;;;2.57;96.51
41467;BME280;27205;53.690;19.948;2022-12-07T09:01:55;98840.59;;;2.67;96.51
41467;BME280;27205;53.690;19.948;2022-12-07T09:06:59;98838.42;;;2.75;96.81
41467;BME280;27205;53.690;19.948;2022-12-07T09:12:03;98838.83;;;2.83;96.93
41467;BME280;27205;53.690;19.948;2022-12-07T09:17:08;98833.54;;;2.89;96.90
41467;BME280;27205;53.690;19.948;2022-12-07T09:22:12;98823.17;;;2.96;96.70
41467;BME280;27205;53.690;19.948;2022-12-07T09:27:16;98813.52;;;3.01;96.92
41467;BME280;27205;53.690;19.948;2022-12-07T09:32:20;98813.23;;;3.06;96.92
41467;BME280;27205;53.690;19.948;2022-12-07T09:37:24;98813.48;;;3.09;96.89
41467;BME280;27205;53.690;19.948;2022-12-07T09:42:36;98808.56;;;3.09;96.86
41467;BME280;27205;53.690;19.948;2022-12-07T09:47:42;98809.04;;;3.06;96.95
41467;BME280;27205;53.690;19.948;2022-12-07T09:52:47;98802.88;;;3.01;96.90
41467;BME280;27205;53.690;19.948;2022-12-07T09:57:52;98803.60;;;3.00;97.14
41467;BME280;27205;53.690;19.948;2022-12-07T10:03:00;98799.67;;;2.99;96.95
41467;BME280;27205;53.690;19.948;2022-12-07T10:08:04;98793.02;;;2.92;97.12
41467;BME280;27205;53.690;19.948;2022-12-07T10:13:09;98791.91;;;2.89;97.20
41467;BME280;27205;53.690;19.948;2022-12-07T10:23:23;98789.11;;;2.87;97.15
41467;BME280;27205;53.690;19.948;2022-12-07T10:28:34;98788.62;;;2.84;97.37
41467;BME280;27205;53.690;19.948;2022-12-07T10:33:53;98784.64;;;2.86;97.21
41467;BME280;27205;53.690;19.948;2022-12-07T10:39:04;98788.22;;;2.88;97.14
41467;BME280;27205;53.690;19.948;2022-12-07T10:44:21;98789.81;;;2.93;97.09
41467;BME280;27205;53.690;19.948;2022-12-07T11:00:24;98787.30;;;3.03;96.91
41467;BME280;27205;53.690;19.948;2022-12-07T11:06:00;98784.26;;;3.06;96.74
41467;BME280;27205;53.690;19.948;2022-12-07T11:21:37;98771.84;;;3.19;96.58
41467;BME280;27205;53.690;19.948;2022-12-07T11:37:42;98767.91;;;3.10;95.51
41467;BME280;27205;53.690;19.948;2022-12-07T11:42:52;98765.65;;;3.03;95.08
41467;BME280;27205;53.690;19.948;2022-12-07T11:48:38;98765.56;;;2.97;94.90
41467;BME280;27205;53.690;19.948;2022-12-07T11:59:09;98755.80;;;2.88;94.40
41467;BME280;27205;53.690;19.948;2022-12-07T12:10:15;98753.91;;;2.91;94.43
41467;BME280;27205;53.690;19.948;2022-12-07T12:16:34;98759.58;;;2.89;94.04
41467;BME280;27205;53.690;19.948;2022-12-07T12:21:14;98756.02;;;2.91;93.51
41467;BME280;27205;53.690;19.948;2022-12-07T12:26:24;98749.09;;;2.83;93.47
41467;BME280;27205;53.690;19.948;2022-12-07T12:31:36;98746.28;;;2.78;93.41
41467;BME280;27205;53.690;19.948;2022-12-07T12:47:37;98731.07;;;2.65;93.25
41467;BME280;27205;53.690;19.948;2022-12-07T12:57:41;98721.80;;;2.78;92.73
41467;BME280;27205;53.690;19.948;2022-12-07T13:02:50;98723.89;;;2.78;92.57
41467;BME280;27205;53.690;19.948;2022-12-07T13:08:01;98714.23;;;2.71;92.58
41467;BME280;27205;53.690;19.948;2022-12-07T13:28:49;98709.51;;;2.38;92.08
41467;BME280;27205;53.690;19.948;2022-12-07T13:33:52;98703.80;;;2.33;92.22
41467;BME280;27205;53.690;19.948;2022-12-07T13:38:58;98698.69;;;2.26;92.12
41467;BME280;27205;53.690;19.948;2022-12-07T13:44:11;98695.63;;;2.23;92.31
41467;BME280;27205;53.690;19.948;2022-12-07T13:49:19;98691.48;;;2.23;92.19
41467;BME280;27205;53.690;19.948;2022-12-07T13:54:24;98688.83;;;2.26;92.37
41467;BME280;27205;53.690;19.948;2022-12-07T13:59:27;98692.31;;;2.26;92.29
41467;BME280;27205;53.690;19.948;2022-12-07T14:04:36;98692.36;;;2.27;92.42
41467;BME280;27205;53.690;19.948;2022-12-07T14:09:39;98693.11;;;2.24;92.23
41467;BME280;27205;53.690;19.948;2022-12-07T14:14:47;98690.08;;;2.20;92.15
41467;BME280;27205;53.690;19.948;2022-12-07T14:19:59;98682.80;;;2.19;92.15
41467;BME280;27205;53.690;19.948;2022-12-07T14:25:22;98681.81;;;2.19;92.45
41467;BME280;27205;53.690;19.948;2022-12-07T14:30:32;98683.70;;;2.16;92.22
41467;BME280;27205;53.690;19.948;2022-12-07T14:35:37;98684.06;;;2.12;92.38
41467;BME280;27205;53.690;19.948;2022-12-07T14:40:43;98686.20;;;2.11;92.35
41467;BME280;27205;53.690;19.948;2022-12-07T14:45:46;98681.44;;;2.09;92.36
41467;BME280;27205;53.690;19.948;2022-12-07T14:50:52;98678.25;;;2.10;92.58
41467;BME280;27205;53.690;19.948;2022-12-07T14:56:16;98676.95;;;2.10;92.65
41467;BME280;27205;53.690;19.948;2022-12-07T15:01:20;98668.70;;;2.08;92.64
41467;BME280;27205;53.690;19.948;2022-12-07T15:06:28;98667.41;;;2.03;92.45
41467;BME280;27205;53.690;19.948;2022-12-07T15:11:31;98660.88;;;2.01;92.59
41467;BME280;27205;53.690;19.948;2022-12-07T15:16:37;98660.80;;;1.95;92.65
41467;BME280;27205;53.690;19.948;2022-12-07T15:22:02;98658.52;;;1.93;92.79
41467;BME280;27205;53.690;19.948;2022-12-07T15:27:06;98657.75;;;1.94;92.89
41467;BME280;27205;53.690;19.948;2022-12-07T15:32:09;98652.86;;;1.94;93.01
41467;BME280;27205;53.690;19.948;2022-12-07T15:37:13;98652.93;;;1.94;93.19
41467;BME280;27205;53.690;19.948;2022-12-07T15:42:17;98652.95;;;1.93;93.16
41467;BME280;27205;53.690;19.948;2022-12-07T15:47:20;98652.08;;;1.94;93.30
41467;BME280;27205;53.690;19.948;2022-12-07T15:52:24;98656.23;;;1.92;93.14
41467;BME280;27205;53.690;19.948;2022-12-07T15:57:27;98657.71;;;1.89;93.33
41467;BME280;27205;53.690;19.948;2022-12-07T16:02:30;98664.31;;;1.88;93.50
41467;BME280;27205;53.690;19.948;2022-12-07T16:07:41;98658.91;;;1.88;93.57
41467;BME280;27205;53.690;19.948;2022-12-07T16:12:46;98654.67;;;1.87;93.60
41467;BME280;27205;53.690;19.948;2022-12-07T16:17:51;98649.95;;;1.85;93.58
41467;BME280;27205;53.690;19.948;2022-12-07T16:22:54;98643.27;;;1.83;93.79
41467;BME280;27205;53.690;19.948;2022-12-07T16:27:58;98640.20;;;1.82;93.82
41467;BME280;27205;53.690;19.948;2022-12-07T16:33:01;98638.73;;;1.78;94.04
41467;BME280;27205;53.690;19.948;2022-12-07T16:38:05;98636.42;;;1.75;93.96
41467;BME280;27205;53.690;19.948;2022-12-07T16:43:10;98640.75;;;1.76;94.34
41467;BME280;27205;53.690;19.948;2022-12-07T16:48:16;98639.05;;;1.71;94.16
41467;BME280;27205;53.690;19.948;2022-12-07T16:53:21;98638.48;;;1.69;94.29
41467;BME280;27205;53.690;19.948;2022-12-07T16:58:25;98633.45;;;1.65;94.26
41467;BME280;27205;53.690;19.948;2022-12-07T17:03:28;98634.84;;;1.65;94.40
41467;BME280;27205;53.690;19.948;2022-12-07T17:08:31;98634.87;;;1.64;94.75
41467;BME280;27205;53.690;19.948;2022-12-07T17:13:35;98636.45;;;1.63;94.81
41467;BME280;27205;53.690;19.948;2022-12-07T17:18:58;98643.23;;;1.62;94.82
41467;BME280;27205;53.690;19.948;2022-12-07T17:24:03;98645.16;;;1.62;94.92
41467;BME280;27205;53.690;19.948;2022-12-07T17:29:08;98643.55;;;1.64;95.11
41467;BME280;27205;53.690;19.948;2022-12-07T17:34:14;98645.08;;;1.65;95.03
41467;BME280;27205;53.690;19.948;2022-12-07T17:39:18;98636.86;;;1.65;95.02
41467;BME280;27205;53.690;19.948;2022-12-07T17:44:22;98641.66;;;1.65;95.15
41467;BME280;27205;53.690;19.948;2022-12-07T17:49:26;98635.23;;;1.65;95.26
41467;BME280;27205;53.690;19.948;2022-12-07T17:54:31;98633.73;;;1.68;95.15
41467;BME280;27205;53.690;19.948;2022-12-07T17:59:34;98637.83;;;1.70;95.33
41467;BME280;27205;53.690;19.948;2022-12-07T18:04:38;98643.16;;;1.70;95.06
41467;BME280;27205;53.690;19.948;2022-12-07T18:09:44;98643.04;;;1.70;95.22
41467;BME280;27205;53.690;19.948;2022-12-07T18:14:47;98641.52;;;1.67;95.27
41467;BME280;27205;53.690;19.948;2022-12-07T18:19:53;98639.59;;;1.64;95.39
41467;BME280;27205;53.690;19.948;2022-12-07T18:24:57;98644.14;;;1.61;95.41
41467;BME280;27205;53.690;19.948;2022-12-07T18:49:30;98641.21;;;2.02;95.52
41467;BME280;27205;53.690;19.948;2022-12-07T18:54:32;98642.16;;;2.04;95.59
41467;BME280;27205;53.690;19.948;2022-12-07T18:59:34;98644.44;;;2.00;95.54
41467;BME280;27205;53.690;19.948;2022-12-07T19:04:50;98646.55;;;1.93;95.53
41467;BME280;27205;53.690;19.948;2022-12-07T19:09:52;98642.92;;;1.86;95.43
41467;BME280;27205;53.690;19.948;2022-12-07T19:14:54;98641.33;;;1.83;95.37
41467;BME280;27205;53.690;19.948;2022-12-07T19:19:56;98636.71;;;1.80;95.13
41467;BME280;27205;53.690;19.948;2022-12-07T19:24:59;98639.02;;;1.74;94.91
41467;BME280;27205;53.690;19.948;2022-12-07T19:30:03;98636.05;;;1.70;94.67
41467;BME280;27205;53.690;19.948;2022-12-07T19:35:05;98633.69;;;1.67;94.54
41467;BME280;27205;53.690;19.948;2022-12-07T19:40:09;98635.34;;;1.64;94.46
41467;BME280;27205;53.690;19.948;2022-12-07T19:45:11;98635.11;;;1.60;94.18
41467;BME280;27205;53.690;19.948;2022-12-07T19:50:13;98636.38;;;1.52;94.13
41467;BME280;27205;53.690;19.948;2022-12-07T19:55:15;98640.19;;;1.48;94.12
41467;BME280;27205;53.690;19.948;2022-12-07T20:00:18;98638.02;;;1.43;94.03
41467;BME280;27205;53.690;19.948;2022-12-07T20:05:20;98637.16;;;1.41;93.97
41467;BME280;27205;53.690;19.948;2022-12-07T20:10:25;98640.90;;;1.40;93.96
41467;BME280;27205;53.690;19.948;2022-12-07T20:15:27;98642.16;;;1.38;93.96
41467;BME280;27205;53.690;19.948;2022-12-07T20:20:31;98647.61;;;1.37;93.78
41467;BME280;27205;53.690;19.948;2022-12-07T20:25:35;98655.25;;;1.36;93.79
41467;BME280;27205;53.690;19.948;2022-12-07T20:30:47;98657.96;;;1.36;93.77
41467;BME280;27205;53.690;19.948;2022-12-07T20:35:50;98653.34;;;1.35;93.65
41467;BME280;27205;53.690;19.948;2022-12-07T20:40:52;98654.06;;;1.34;93.57
41467;BME280;27205;53.690;19.948;2022-12-07T20:45:55;98661.27;;;1.34;93.57
41467;BME280;27205;53.690;19.948;2022-12-07T20:51:04;98653.52;;;1.34;93.47
41467;BME280;27205;53.690;19.948;2022-12-07T20:56:07;98663.33;;;1.35;93.70
41467;BME280;27205;53.690;19.948;2022-12-07T21:01:18;98655.31;;;1.36;93.56
41467;BME280;27205;53.690;19.948;2022-12-07T21:41:29;98701.84;;;1.89;92.28
41467;BME280;27205;53.690;19.948;2022-12-07T21:46:34;98705.31;;;1.77;91.87
41467;BME280;27205;53.690;19.948;2022-12-07T21:51:39;98706.45;;;1.61;91.69
41467;BME280;27205;53.690;19.948;2022-12-07T21:56:42;98714.80;;;1.48;91.35
41467;BME280;27205;53.690;19.948;2022-12-07T22:01:48;98717.31;;;1.39;91.26
41467;BME280;27205;53.690;19.948;2022-12-07T22:06:53;98715.85;;;1.31;90.94
41467;BME280;27205;53.690;19.948;2022-12-07T22:11:59;98721.36;;;1.26;90.81
41467;BME280;27205;53.690;19.948;2022-12-07T22:17:02;98726.52;;;1.20;90.68
41467;BME280;27205;53.690;19.948;2022-12-07T22:22:06;98726.28;;;1.18;90.70
41467;BME280;27205;53.690;19.948;2022-12-07T22:27:10;98724.38;;;1.12;90.63
41467;BME280;27205;53.690;19.948;2022-12-07T22:32:13;98724.01;;;1.09;90.66
41467;BME280;27205;53.690;19.948;2022-12-07T22:37:37;98727.57;;;1.06;90.23
41467;BME280;27205;53.690;19.948;2022-12-07T22:42:40;98735.02;;;1.04;90.37
41467;BME280;27205;53.690;19.948;2022-12-07T22:47:44;98738.02;;;1.01;90.34
41467;BME280;27205;53.690;19.948;2022-12-07T22:52:47;98739.84;;;1.00;90.28
41467;BME280;27205;53.690;19.948;2022-12-07T22:57:51;98740.89;;;0.97;90.21
41467;BME280;27205;53.690;19.948;2022-12-07T23:02:54;98742.23;;;0.94;90.07
41467;BME280;27205;53.690;19.948;2022-12-07T23:07:58;98748.38;;;0.93;90.22
41467;BME280;27205;53.690;19.948;2022-12-07T23:13:02;98755.69;;;0.92;89.95
41467;BME280;27205;53.690;19.948;2022-12-07T23:18:24;98757.91;;;0.90;89.70
41467;BME280;27205;53.690;19.948;2022-12-07T23:23:28;98758.61;;;0.88;89.47
41467;BME280;27205;53.690;19.948;2022-12-07T23:28:32;98766.09;;;0.86;89.26
41467;BME280;27205;53.690;19.948;2022-12-07T23:33:36;98760.68;;;0.83;89.36
41467;BME280;27205;53.690;19.948;2022-12-07T23:38:41;98759.15;;;0.83;89.06
41467;BME280;27205;53.690;19.948;2022-12-07T23:43:45;98753.17;;;0.83;88.93
41467;BME280;27205;53.690;19.948;2022-12-07T23:48:49;98756.94;;;0.81;88.81
41467;BME280;27205;53.690;19.948;2022-12-07T23:53:57;98762.99;;;0.81;88.68
41467;BME280;27205;53.690;19.948;2022-12-07T23:59:01;98767.02;;;0.81;88.66
